Time;durP1;ratioP1;P1;durP2;ratioP2;P2;SDS_P1;SDS_P2;PMS_P1;PMS_P2;Temp;Humidity;BMP_temperature;BMP_pressure;BME280_temperature;BME280_humidity;BME280_pressure;Samples;Min_cycle;Max_cycle;Signal;HPM_P1;HPM_P2
2021/04/23 00:00:14;;;;;;;;;;;;;;;21.63;30.41;98075.19;5063102;28;900;-83
2021/04/23 00:02:40;;;;;;;;;;;;;;;21.71;30.52;98064.44;5063749;28;639;-84
2021/04/23 00:05:05;;;;;;;;;;;;;;;21.64;30.54;98071.09;5046110;28;1963;-85
2021/04/23 00:07:31;;;;;;;;;;;;;;;21.52;30.67;98069.00;5063709;28;674;-82
2021/04/23 00:09:56;;;;;;;;;;;;;;;21.56;30.66;98069.72;5046052;28;919;-82
2021/04/23 00:12:22;;;;;;;;;;;;;;;21.58;30.62;98067.22;5063272;28;861;-84
2021/04/23 00:14:48;;;;;;;;;;;;;;;21.64;30.46;98062.59;5063439;28;881;-82
2021/04/23 00:17:13;;;;;;;;;;;;;;;21.65;30.51;98058.53;5063484;28;788;-82
2021/04/23 00:19:39;;;;;;;;;;;;;;;21.62;30.50;98056.59;5062937;28;649;-84
2021/04/23 00:22:05;;;;;;;;;;;;;;;21.58;30.60;98055.91;5046947;28;1286;-84
2021/04/23 00:24:30;;;;;;;;;;;;;;;21.56;30.55;98055.56;5062150;28;1898;-83
2021/04/23 00:26:56;;;;;;;;;;;;;;;21.46;30.47;98048.13;5062960;28;922;-83
2021/04/23 00:29:21;;;;;;;;;;;;;;;21.46;30.69;98048.91;5062330;28;1358;-84
2021/04/23 00:31:47;;;;;;;;;;;;;;;21.99;30.53;98051.59;5062968;28;718;-84
2021/04/23 00:34:12;;;;;;;;;;;;;;;22.32;29.53;98040.94;5045746;28;1303;-84
2021/04/23 00:36:38;;;;;;;;;;;;;;;22.10;29.83;98047.22;5063189;28;1157;-84
2021/04/23 00:39:03;;;;;;;;;;;;;;;21.77;30.06;98046.50;5062613;28;909;-84
2021/04/23 00:41:30;;;;;;;;;;;;;;;21.74;30.15;98041.72;5062918;28;833;-83
2021/04/23 00:43:58;;;;;;;;;;;;;;;21.66;30.32;98046.00;5045760;28;923;-83
2021/04/23 00:46:24;;;;;;;;;;;;;;;21.65;30.38;98041.53;5062953;28;1980;-84
2021/04/23 00:48:50;;;;;;;;;;;;;;;21.61;30.48;98043.69;5045522;28;607;-84
2021/04/23 00:51:20;;;;;;;;;;;;;;;21.56;30.46;98038.56;5046278;28;1326;-84
2021/04/23 00:53:50;;;;;;;;;;;;;;;21.59;30.58;98038.44;5061630;28;838;-83
2021/04/23 00:56:18;;;;;;;;;;;;;;;21.55;30.66;98040.59;5063286;28;878;-84
2021/04/23 00:58:43;;;;;;;;;;;;;;;21.50;30.68;98034.66;5061740;28;889;-84
2021/04/23 01:01:10;;;;;;;;;;;;;;;21.63;30.47;98035.53;5046175;28;837;-84
2021/04/23 01:03:36;;;;;;;;;;;;;;;21.58;30.57;98028.38;5045381;28;1123;-84
2021/04/23 01:06:04;;;;;;;;;;;;;;;21.56;30.08;98030.06;5045596;28;1898;-84
2021/04/23 01:08:30;;;;;;;;;;;;;;;21.53;30.46;98025.28;5061484;28;1087;-84
2021/04/23 01:10:55;;;;;;;;;;;;;;;21.54;30.22;98027.66;5062669;28;899;-84
2021/04/23 01:13:22;;;;;;;;;;;;;;;21.48;30.47;98028.66;5044306;28;940;-84
2021/04/23 01:15:47;;;;;;;;;;;;;;;21.52;30.16;98035.81;5046491;28;1470;-84
2021/04/23 01:18:13;;;;;;;;;;;;;;;21.56;30.44;98024.41;5061985;28;661;-84
2021/04/23 01:20:38;;;;;;;;;;;;;;;21.97;30.34;98037.06;5062442;28;710;-84
2021/04/23 01:23:04;;;;;;;;;;;;;;;22.20;30.11;98028.34;5061437;28;1035;-83
2021/04/23 01:25:30;;;;;;;;;;;;;;;22.42;29.71;98024.88;5045507;28;1906;-84
2021/04/23 01:27:56;;;;;;;;;;;;;;;21.99;29.99;98026.09;5062609;28;1281;-84
2021/04/23 01:30:21;;;;;;;;;;;;;;;21.74;30.09;98024.72;5045462;28;958;-84
2021/04/23 01:32:47;;;;;;;;;;;;;;;21.73;30.07;98025.97;5061645;28;960;-84
2021/04/23 01:35:14;;;;;;;;;;;;;;;21.73;29.87;98017.47;5061995;28;825;-83
2021/04/23 01:37:40;;;;;;;;;;;;;;;21.64;30.29;98016.50;5062170;28;1217;-84
2021/04/23 01:40:06;;;;;;;;;;;;;;;21.61;30.44;98015.38;5061541;28;1302;-84
2021/04/23 01:42:31;;;;;;;;;;;;;;;21.60;30.77;98016.59;5062981;28;829;-84
2021/04/23 01:44:58;;;;;;;;;;;;;;;21.53;30.77;98020.41;5061325;28;1918;-83
2021/04/23 01:47:24;;;;;;;;;;;;;;;21.72;30.43;98018.72;5046075;28;1302;-84
2021/04/23 01:49:50;;;;;;;;;;;;;;;21.59;30.53;98018.63;5061952;28;1164;-84
2021/04/23 01:52:15;;;;;;;;;;;;;;;21.59;30.62;98023.50;5044955;28;1174;-84
2021/04/23 01:54:41;;;;;;;;;;;;;;;21.51;30.92;98024.94;5061091;28;875;-84
2021/04/23 01:57:06;;;;;;;;;;;;;;;21.52;30.71;98029.34;5061699;28;833;-84
2021/04/23 01:59:32;;;;;;;;;;;;;;;21.57;30.69;98023.16;5061294;28;845;-84
2021/04/23 02:01:58;;;;;;;;;;;;;;;21.51;30.57;98027.78;5045614;28;1020;-83
2021/04/23 02:04:23;;;;;;;;;;;;;;;21.57;30.83;98026.78;5045129;28;1906;-84
2021/04/23 02:06:49;;;;;;;;;;;;;;;21.56;30.57;98024.41;5045791;28;1135;-84
2021/04/23 02:09:14;;;;;;;;;;;;;;;21.53;30.47;98019.63;5044456;28;897;-83
2021/04/23 02:11:40;;;;;;;;;;;;;;;21.56;30.83;98018.75;5044586;28;942;-83
2021/04/23 02:14:06;;;;;;;;;;;;;;;21.53;30.71;98022.44;5031978;28;880;-84
2021/04/23 02:16:31;;;;;;;;;;;;;;;21.54;30.78;98021.22;5066143;28;726;-84
2021/04/23 02:18:57;;;;;;;;;;;;;;;21.51;30.75;98016.44;5065148;28;957;-84
2021/04/23 02:21:22;;;;;;;;;;;;;;;21.39;30.98;98019.97;5065774;28;964;-84
2021/04/23 02:23:48;;;;;;;;;;;;;;;21.59;30.47;98006.50;5065016;28;857;-84
2021/04/23 02:26:14;;;;;;;;;;;;;;;21.68;30.59;98015.19;5065925;28;1894;-84
2021/04/23 02:28:40;;;;;;;;;;;;;;;22.18;30.26;98019.50;5049338;28;1258;-85
2021/04/23 02:31:13;;;;;;;;;;;;;;;22.36;29.71;98014.09;5066173;28;725;-85
2021/04/23 02:33:38;;;;;;;;;;;;;;;21.95;30.19;98022.53;5064681;28;1044;-85
2021/04/23 02:36:04;;;;;;;;;;;;;;;21.80;30.01;98017.25;5065665;28;846;-84
2021/04/23 02:38:30;;;;;;;;;;;;;;;21.69;30.17;98025.25;5048048;28;1240;-84
2021/04/23 02:40:55;;;;;;;;;;;;;;;21.54;30.46;98024.03;5066791;28;861;-85
2021/04/23 02:43:22;;;;;;;;;;;;;;;21.49;30.89;98018.91;5065266;28;1292;-85
2021/04/23 02:45:48;;;;;;;;;;;;;;;21.65;30.27;98030.22;5065666;28;1902;-83
2021/04/23 02:48:13;;;;;;;;;;;;;;;21.68;30.15;98018.00;5047904;28;850;-84
2021/04/23 02:50:43;;;;;;;;;;;;;;;21.64;30.14;98025.78;5048492;28;1309;-82
2021/04/23 02:53:09;;;;;;;;;;;;;;;21.64;30.28;98020.13;5064475;28;953;-84
2021/04/23 02:55:34;;;;;;;;;;;;;;;21.60;30.21;98013.75;5064727;28;878;-84
2021/04/23 02:58:08;;;;;;;;;;;;;;;21.51;30.78;98019.28;5047566;28;873;-82
2021/04/23 03:00:35;;;;;;;;;;;;;;;21.54;30.30;98021.22;5048252;28;1503;-81
2021/04/23 03:03:00;;;;;;;;;;;;;;;21.56;30.43;98024.41;5064732;28;670;-83
2021/04/23 03:05:26;;;;;;;;;;;;;;;21.91;30.63;98025.47;5064644;28;1973;-84
2021/04/23 03:07:53;;;;;;;;;;;;;;;22.28;30.13;98018.41;5064641;28;923;-84
2021/04/23 03:10:19;;;;;;;;;;;;;;;22.39;29.52;98022.97;5065078;28;849;-84
2021/04/23 03:12:44;;;;;;;;;;;;;;;21.91;30.18;98027.50;5048839;28;1302;-83
2021/04/23 03:15:10;;;;;;;;;;;;;;;21.72;30.31;98021.53;5064381;28;824;-82
2021/04/23 03:17:36;;;;;;;;;;;;;;;21.67;30.24;98026.97;5065125;28;861;-84
2021/04/23 03:20:03;;;;;;;;;;;;;;;21.70;30.11;98029.69;5031184;28;1431;-84
2021/04/23 03:22:28;;;;;;;;;;;;;;;21.71;30.46;98036.13;5065002;28;967;-84
2021/04/23 03:24:54;;;;;;;;;;;;;;;21.65;30.38;98044.38;5062776;28;1989;-84
2021/04/23 03:27:19;;;;;;;;;;;;;;;21.62;30.75;98053.78;5065106;28;632;-83
2021/04/23 03:29:45;;;;;;;;;;;;;;;21.72;30.18;98055.53;5047754;28;1287;-84
2021/04/23 03:32:10;;;;;;;;;;;;;;;21.63;30.55;98046.06;5047851;28;1484;-84
2021/04/23 03:34:35;;;;;;;;;;;;;;;21.51;30.57;98050.44;5064451;28;941;-84
2021/04/23 03:37:01;;;;;;;;;;;;;;;21.54;30.75;98047.47;5064147;28;949;-85
2021/04/23 03:39:27;;;;;;;;;;;;;;;21.44;30.96;98045.72;5030458;28;1119;-83
2021/04/23 03:41:52;;;;;;;;;;;;;;;21.43;30.75;98049.00;5064628;28;848;-84
2021/04/23 03:44:18;;;;;;;;;;;;;;;21.55;30.39;98051.09;5063953;28;1898;-84
2021/04/23 03:46:44;;;;;;;;;;;;;;;21.40;30.86;98049.88;5047636;28;969;-84
2021/04/23 03:49:10;;;;;;;;;;;;;;;21.46;30.67;98042.47;5063260;28;924;-84
2021/04/23 03:51:45;;;;;;;;;;;;;;;21.55;30.39;98051.09;5064046;28;942;-84
2021/04/23 03:54:10;;;;;;;;;;;;;;;21.38;30.95;98044.66;5063745;28;849;-84
2021/04/23 03:56:36;;;;;;;;;;;;;;;21.47;30.72;98041.22;5046937;28;945;-84
2021/04/23 03:59:01;;;;;;;;;;;;;;;21.53;30.52;98033.78;5063311;28;923;-84
2021/04/23 04:01:34;;;;;;;;;;;;;;;21.52;30.62;98052.81;5046372;28;1169;-82
2021/04/23 04:04:00;;;;;;;;;;;;;;;21.44;30.73;98044.91;5062232;28;890;-83
2021/04/23 04:06:25;;;;;;;;;;;;;;;21.57;30.37;98054.31;5062598;28;2025;-83
2021/04/23 04:08:51;;;;;;;;;;;;;;;22.21;30.06;98049.75;5045937;28;996;-84
2021/04/23 04:11:17;;;;;;;;;;;;;;;22.33;29.73;98049.03;5047244;28;1278;-84
2021/04/23 04:13:42;;;;;;;;;;;;;;;22.15;29.96;98051.56;5046055;28;698;-84
2021/04/23 04:16:08;;;;;;;;;;;;;;;21.86;30.32;98051.50;5062655;28;1049;-81
2021/04/23 04:18:33;;;;;;;;;;;;;;;21.93;29.81;98053.38;5028930;28;930;-82
2021/04/23 04:20:59;;;;;;;;;;;;;;;21.80;29.87;98056.91;5060076;28;907;-78
2021/04/23 04:23:24;;;;;;;;;;;;;;;21.62;30.27;98050.94;5061155;28;665;-80
2021/04/23 04:25:51;;;;;;;;;;;;;;;21.50;30.47;98045.97;5060725;28;1985;-78
2021/04/23 04:28:17;;;;;;;;;;;;;;;21.65;30.46;98047.19;5060744;28;1117;-76
2021/04/23 04:30:42;;;;;;;;;;;;;;;21.53;30.82;98054.38;5060229;28;990;-77
2021/04/23 04:33:08;;;;;;;;;;;;;;;21.57;30.68;98057.13;5060021;28;966;-81
2021/04/23 04:35:34;;;;;;;;;;;;;;;21.52;30.40;98058.47;5060315;28;1151;-78
2021/04/23 04:37:59;;;;;;;;;;;;;;;21.49;30.86;98052.88;5061008;28;602;-78
2021/04/23 04:40:25;;;;;;;;;;;;;;;21.51;30.40;98056.09;5060279;28;690;-79
2021/04/23 04:42:51;;;;;;;;;;;;;;;21.59;30.40;98051.81;5060785;28;995;-78
2021/04/23 04:45:17;;;;;;;;;;;;;;;21.54;30.39;98052.34;5059749;28;1975;-79
2021/04/23 04:47:42;;;;;;;;;;;;;;;21.89;30.72;98049.84;5060926;28;957;-79
2021/04/23 04:50:10;;;;;;;;;;;;;;;22.20;30.25;98050.22;5060675;28;672;-79
2021/04/23 04:52:36;;;;;;;;;;;;;;;22.16;29.79;98058.81;5061012;28;599;-79
2021/04/23 04:55:02;;;;;;;;;;;;;;;21.92;30.25;98051.78;5059918;28;856;-79
2021/04/23 04:57:28;;;;;;;;;;;;;;;21.84;30.28;98056.84;5059996;28;595;-81
2021/04/23 04:59:53;;;;;;;;;;;;;;;21.89;30.05;98053.47;5060057;28;1188;-78
2021/04/23 05:02:19;;;;;;;;;;;;;;;21.78;29.99;98036.75;5059606;28;877;-78
2021/04/23 05:04:44;;;;;;;;;;;;;;;21.63;30.48;98046.88;5060399;28;1906;-77
2021/04/23 05:07:09;;;;;;;;;;;;;;;21.59;30.62;98035.63;5060480;28;889;-79
2021/04/23 05:09:35;;;;;;;;;;;;;;;21.59;30.79;98034.81;5060003;28;785;-78
2021/04/23 05:12:00;;;;;;;;;;;;;;;21.56;30.56;98030.06;5060260;28;706;-77
2021/04/23 05:14:26;;;;;;;;;;;;;;;21.48;30.81;98032.28;5059668;28;631;-78
2021/04/23 05:16:51;;;;;;;;;;;;;;;21.51;30.90;98033.44;5059278;28;1043;-79
2021/04/23 05:19:17;;;;;;;;;;;;;;;21.51;31.04;98039.09;5059313;28;887;-77
2021/04/23 05:21:43;;;;;;;;;;;;;;;21.52;30.62;98049.97;5060252;28;995;-78
2021/04/23 05:24:08;;;;;;;;;;;;;;;21.56;30.54;98047.06;5060091;28;610;-79
2021/04/23 05:26:34;;;;;;;;;;;;;;;21.54;30.63;98041.03;5059355;28;1906;-77
2021/04/23 05:28:59;;;;;;;;;;;;;;;21.48;30.81;98051.28;5060217;28;647;-81
2021/04/23 05:31:25;;;;;;;;;;;;;;;21.51;30.75;98039.09;5059854;28;980;-79
2021/04/23 05:33:50;;;;;;;;;;;;;;;21.97;30.60;98042.75;5058935;28;1107;-80
2021/04/23 05:36:15;;;;;;;;;;;;;;;22.28;30.04;98041.06;5060341;28;905;-79
2021/04/23 05:38:41;;;;;;;;;;;;;;;22.49;29.15;98036.03;5059256;28;913;-78
2021/04/23 05:41:06;;;;;;;;;;;;;;;22.01;30.17;98029.25;5060140;28;659;-76
2021/04/23 05:43:32;;;;;;;;;;;;;;;21.75;30.00;98026.31;5059949;28;623;-78
2021/04/23 05:45:57;;;;;;;;;;;;;;;21.65;30.28;98027.38;5059905;28;2056;-77
2021/04/23 05:48:23;;;;;;;;;;;;;;;21.75;29.99;98034.00;5062179;28;1098;-78
2021/04/23 05:50:51;;;;;;;;;;;;;;;21.64;30.48;98028.63;5064161;28;780;-78
2021/04/23 05:53:17;;;;;;;;;;;;;;;21.63;30.49;98038.38;5064093;28;957;-79
2021/04/23 05:55:42;;;;;;;;;;;;;;;21.62;30.54;98033.16;5063231;28;911;-77
2021/04/23 05:58:09;;;;;;;;;;;;;;;21.44;30.47;98034.41;5064080;28;661;-77
2021/04/23 06:00:35;;;;;;;;;;;;;;;21.59;30.48;98029.16;5063758;28;643;-76
2021/04/23 06:03:01;;;;;;;;;;;;;;;21.50;30.78;98034.66;5063228;28;1044;-79
2021/04/23 06:05:30;;;;;;;;;;;;;;;21.44;30.67;98033.59;5063577;28;1906;-79
2021/04/23 06:07:56;;;;;;;;;;;;;;;21.68;30.30;98037.84;5062979;28;976;-78
2021/04/23 06:10:21;;;;;;;;;;;;;;;21.53;30.39;98033.78;5063743;28;644;-78
2021/04/23 06:12:47;;;;;;;;;;;;;;;21.51;30.33;98034.22;5063933;28;668;-78
2021/04/23 06:15:12;;;;;;;;;;;;;;;21.54;30.49;98029.69;5063026;28;661;-79
2021/04/23 06:17:38;;;;;;;;;;;;;;;21.48;30.21;98031.47;5062813;28;1014;-77
2021/04/23 06:20:05;;;;;;;;;;;;;;;21.52;30.38;98029.34;5062611;28;845;-77
2021/04/23 06:22:30;;;;;;;;;;;;;;;21.47;30.39;98021.41;5046370;28;831;-77
2021/04/23 06:24:56;;;;;;;;;;;;;;;21.51;30.70;98033.44;5063414;28;1906;-77
2021/04/23 06:27:23;;;;;;;;;;;;;;;21.47;30.48;98032.72;5063493;28;686;-77
2021/04/23 06:29:50;;;;;;;;;;;;;;;21.35;30.75;98039.09;5063113;28;885;-78
2021/04/23 06:32:15;;;;;;;;;;;;;;;21.67;30.53;98024.91;5062312;28;986;-81
2021/04/23 06:34:41;;;;;;;;;;;;;;;22.17;30.41;98034.09;5062477;28;932;-79
2021/04/23 06:37:06;;;;;;;;;;;;;;;22.39;30.07;98022.97;5062551;28;774;-81
2021/04/23 06:39:31;;;;;;;;;;;;;;;22.28;29.67;98029.75;5062611;28;1302;-78
2021/04/23 06:41:57;;;;;;;;;;;;;;;21.75;30.37;98028.34;5063636;28;690;-79
2021/04/23 06:44:22;;;;;;;;;;;;;;;21.68;30.51;98037.03;5061960;28;1967;-79
2021/04/23 06:46:48;;;;;;;;;;;;;;;21.61;30.54;98040.84;5062376;28;777;-78
2021/04/23 06:49:13;;;;;;;;;;;;;;;21.53;30.67;98036.59;5062190;28;973;-78
2021/04/23 06:51:39;;;;;;;;;;;;;;;21.58;30.44;98044.56;5063080;28;622;-79
2021/04/23 06:54:04;;;;;;;;;;;;;;;21.41;30.88;98034.50;5062240;28;591;-80
2021/04/23 06:56:30;;;;;;;;;;;;;;;21.45;30.95;98032.34;5062298;28;772;-79
2021/04/23 06:58:55;;;;;;;;;;;;;;;21.58;30.54;98038.91;5061535;28;965;-79
2021/04/23 07:01:21;;;;;;;;;;;;;;;21.56;30.50;98035.72;5061977;28;936;-80
2021/04/23 07:03:46;;;;;;;;;;;;;;;21.53;30.60;98042.28;5062105;28;915;-79
2021/04/23 07:06:12;;;;;;;;;;;;;;;21.54;30.77;98049.53;5062840;28;1975;-81
2021/04/23 07:08:37;;;;;;;;;;;;;;;21.44;30.86;98051.38;5062990;28;677;-80
2021/04/23 07:11:03;;;;;;;;;;;;;;;21.48;30.62;98051.28;5062811;28;631;-80
2021/04/23 07:13:28;;;;;;;;;;;;;;;21.91;30.76;98050.16;5045059;28;851;-80
2021/04/23 07:15:54;;;;;;;;;;;;;;;22.23;29.99;98058.63;5061724;28;845;-81
2021/04/23 07:18:19;;;;;;;;;;;;;;;22.27;29.83;98067.81;5062503;28;852;-81
2021/04/23 07:20:45;;;;;;;;;;;;;;;21.88;30.05;98079.41;5062414;28;627;-79
2021/04/23 07:23:10;;;;;;;;;;;;;;;21.73;30.09;98079.78;5062173;28;762;-80
2021/04/23 07:25:36;;;;;;;;;;;;;;;21.79;29.94;98077.19;5062384;28;1905;-80
2021/04/23 07:28:01;;;;;;;;;;;;;;;21.76;29.68;98073.22;5045091;28;1172;-79
2021/04/23 07:30:29;;;;;;;;;;;;;;;21.51;30.29;98084.41;5062035;28;928;-78
2021/04/23 07:32:55;;;;;;;;;;;;;;;21.59;30.41;98080.13;5061927;28;997;-79
2021/04/23 07:35:21;;;;;;;;;;;;;;;21.69;30.17;98084.72;5062534;28;682;-81
2021/04/23 07:37:46;;;;;;;;;;;;;;;21.60;30.48;98081.72;5061774;28;603;-81
2021/04/23 07:40:13;;;;;;;;;;;;;;;21.56;30.38;98076.16;5061629;28;733;-81
2021/04/23 07:42:39;;;;;;;;;;;;;;;21.64;30.12;98082.44;5061390;28;935;-80
2021/04/23 07:45:05;;;;;;;;;;;;;;;21.63;30.08;98075.19;5061859;28;1910;-81
2021/04/23 07:47:30;;;;;;;;;;;;;;;21.61;30.41;98077.66;5062045;28;928;-81
2021/04/23 07:49:55;;;;;;;;;;;;;;;21.83;30.59;98073.03;5061316;28;849;-79
2021/04/23 07:52:21;;;;;;;;;;;;;;;22.17;30.39;98068.91;5078342;28;658;-81
2021/04/23 07:54:57;;;;;;;;;;;;;;;22.39;29.96;98076.81;5061136;28;734;-81
2021/04/23 07:57:23;;;;;;;;;;;;;;;21.99;30.33;98065.75;5061191;28;1011;-81
2021/04/23 07:59:48;;;;;;;;;;;;;;;21.70;30.45;98074.97;5044430;28;886;-79
2021/04/23 08:02:14;;;;;;;;;;;;;;;21.72;30.48;98066.84;5061805;28;956;-79
2021/04/23 08:04:39;;;;;;;;;;;;;;;21.61;30.43;98089.00;5060548;28;1981;-77
2021/04/23 08:07:08;;;;;;;;;;;;;;;21.51;30.66;98090.06;5060509;28;1199;-78
2021/04/23 08:09:34;;;;;;;;;;;;;;;21.68;30.51;98088.81;5060870;28;610;-80
2021/04/23 08:11:59;;;;;;;;;;;;;;;21.53;30.63;98084.75;5060518;28;844;-80
2021/04/23 08:14:25;;;;;;;;;;;;;;;21.49;30.54;98084.03;5060575;28;1197;-80
2021/04/23 08:16:50;;;;;;;;;;;;;;;21.57;30.37;98088.28;5061447;28;868;-78
2021/04/23 08:19:19;;;;;;;;;;;;;;;21.51;30.86;98090.06;5061524;28;674;-78
2021/04/23 08:21:44;;;;;;;;;;;;;;;21.49;30.86;98092.50;5060607;28;666;-78
2021/04/23 08:24:10;;;;;;;;;;;;;;;21.62;30.35;98096.25;5061436;28;606;-78
2021/04/23 08:26:40;;;;;;;;;;;;;;;21.64;30.33;98090.91;5060819;28;1894;-81
2021/04/23 08:29:06;;;;;;;;;;;;;;;21.57;30.48;98091.13;5060196;28;917;-80
2021/04/23 08:31:31;;;;;;;;;;;;;;;21.57;30.33;98099.59;5061088;28;885;-78
2021/04/23 08:33:57;;;;;;;;;;;;;;;21.56;30.42;98090.31;5061055;28;1057;-79
2021/04/23 08:36:22;;;;;;;;;;;;;;;21.63;30.27;98097.84;5061136;28;640;-80
2021/04/23 08:38:48;;;;;;;;;;;;;;;21.63;30.18;98092.16;5060412;28;860;-78
2021/04/23 08:41:13;;;;;;;;;;;;;;;21.49;30.40;98092.50;5061240;28;741;-81
2021/04/23 08:43:39;;;;;;;;;;;;;;;21.38;30.53;98094.81;5060054;28;1082;-78
2021/04/23 08:46:05;;;;;;;;;;;;;;;21.50;30.34;98092.09;5059879;28;1979;-79
2021/04/23 08:48:30;;;;;;;;;;;;;;;21.42;30.50;98104.03;5060739;28;965;-78
2021/04/23 08:50:56;;;;;;;;;;;;;;;21.46;30.39;98099.09;5060672;28;722;-79
2021/04/23 08:53:21;;;;;;;;;;;;;;;21.37;30.46;98101.72;5060785;28;657;-79
2021/04/23 08:55:47;;;;;;;;;;;;;;;21.42;30.53;98104.03;5060001;28;1200;-79
2021/04/23 08:58:13;;;;;;;;;;;;;;;21.70;30.85;98108.97;5060277;28;1062;-78
2021/04/23 09:00:38;;;;;;;;;;;;;;;22.07;30.78;98106.78;5060343;28;861;-77
2021/04/23 09:03:04;;;;;;;;;;;;;;;22.45;29.81;98106.22;5060543;28;1003;-77
2021/04/23 09:05:29;;;;;;;;;;;;;;;22.10;30.24;98105.91;5060396;28;1902;-78
2021/04/23 09:08:03;;;;;;;;;;;;;;;21.72;30.78;98103.69;5060574;28;714;-78
2021/04/23 09:10:29;;;;;;;;;;;;;;;21.59;30.92;98100.75;5060798;28;701;-77
2021/04/23 09:13:03;;;;;;;;;;;;;;;21.58;30.81;98095.53;5060056;28;809;-79
2021/04/23 09:15:29;;;;;;;;;;;;;;;21.62;30.64;98103.94;5060145;28;937;-80
2021/04/23 09:18:21;;;;;;;;;;;;;;;21.61;30.76;98094.66;5059992;28;962;-80
2021/04/23 09:20:47;;;;;;;;;;;;;;;21.61;30.74;98089.00;5059404;28;978;-81
2021/04/23 09:23:14;;;;;;;;;;;;;;;21.56;31.03;98078.19;5059579;28;627;-80
2021/04/23 09:25:44;;;;;;;;;;;;;;;21.61;30.82;98077.66;5059758;28;1984;-81
2021/04/23 09:28:09;;;;;;;;;;;;;;;21.70;30.67;98077.03;5059513;28;896;-79
2021/04/23 09:30:35;;;;;;;;;;;;;;;21.70;30.60;98085.53;5059458;28;903;-80
2021/04/23 09:33:01;;;;;;;;;;;;;;;21.67;30.80;98084.38;5060054;28;1009;-80
2021/04/23 09:35:26;;;;;;;;;;;;;;;21.53;30.85;98084.75;5059665;28;620;-80
2021/04/23 09:37:55;;;;;;;;;;;;;;;21.76;31.31;98084.56;5060336;28;647;-80
2021/04/23 09:40:25;;;;;;;;;;;;;;;22.19;30.60;98106.09;5059456;28;975;-80
2021/04/23 09:42:54;;;;;;;;;;;;;;;22.39;30.13;98085.34;5059430;28;934;-80
2021/04/23 09:45:20;;;;;;;;;;;;;;;22.01;30.42;98083.09;5060339;28;2001;-81
2021/04/23 09:47:46;;;;;;;;;;;;;;;21.77;30.69;98079.69;5057981;28;649;-81
2021/04/23 09:50:12;;;;;;;;;;;;;;;21.68;30.70;98071.03;5060201;28;616;-81
2021/04/23 09:52:47;;;;;;;;;;;;;;;21.59;30.74;98075.25;5059210;28;996;-80
2021/04/23 09:55:12;;;;;;;;;;;;;;;21.49;30.78;98075.53;5059105;28;1150;-81
2021/04/23 09:57:38;;;;;;;;;;;;;;;21.59;30.54;98077.31;5059309;28;1011;-80
2021/04/23 10:00:04;;;;;;;;;;;;;;;21.58;30.81;98078.53;5060072;28;660;-78
2021/04/23 10:02:30;;;;;;;;;;;;;;;21.65;30.48;98086.84;5059970;28;744;-80
2021/04/23 10:04:56;;;;;;;;;;;;;;;21.63;30.40;98086.50;5059213;28;1977;-80
2021/04/23 10:07:23;;;;;;;;;;;;;;;21.59;30.79;98091.47;5058984;28;1046;-79
2021/04/23 10:09:53;;;;;;;;;;;;;;;21.94;30.63;98083.28;5059420;28;879;-80
2021/04/23 10:12:33;;;;;;;;;;;;;;;22.27;29.95;98104.66;5059162;28;995;-80
2021/04/23 10:15:07;;;;;;;;;;;;;;;21.99;29.98;98100.53;5060049;28;611;-80
2021/04/23 10:17:33;;;;;;;;;;;;;;;21.73;30.48;98108.09;5059997;28;876;-79
2021/04/23 10:19:58;;;;;;;;;;;;;;;21.63;30.68;98103.50;5059852;28;626;-80
2021/04/23 10:22:24;;;;;;;;;;;;;;;21.54;30.92;98100.47;5059494;28;968;-80
2021/04/23 10:24:50;;;;;;;;;;;;;;;21.49;30.62;98092.50;5059048;28;1981;-79
2021/04/23 10:27:16;;;;;;;;;;;;;;;21.44;30.89;98101.53;5058945;28;930;-79
2021/04/23 10:29:42;;;;;;;;;;;;;;;21.48;30.71;98100.22;5059120;28;591;-80
2021/04/23 10:32:08;;;;;;;;;;;;;;;21.51;30.83;98101.38;5058927;28;1700;-80
2021/04/23 10:34:33;;;;;;;;;;;;;;;21.60;30.41;98093.03;5045143;28;1150;-80
2021/04/23 10:36:59;;;;;;;;;;;;;;;21.64;30.99;98096.59;5063003;28;875;-79
2021/04/23 10:39:25;;;;;;;;;;;;;;;22.17;30.32;98102.91;5062612;28;896;-80
2021/04/23 10:41:50;;;;;;;;;;;;;;;22.36;29.65;98107.66;5063609;28;646;-78
2021/04/23 10:44:17;;;;;;;;;;;;;;;22.24;29.67;98102.72;5062522;28;1243;-80
2021/04/23 10:46:53;;;;;;;;;;;;;;;21.90;30.28;98099.56;5063169;28;1910;-80
2021/04/23 10:49:18;;;;;;;;;;;;;;;21.78;30.19;98101.91;5062102;28;837;-80
2021/04/23 10:51:44;;;;;;;;;;;;;;;21.97;29.99;98093.75;5062949;28;852;-80
2021/04/23 10:54:19;;;;;;;;;;;;;;;21.62;30.82;98096.25;5062179;28;861;-80
2021/04/23 10:56:55;;;;;;;;;;;;;;;21.63;30.70;98100.66;5062276;28;599;-80
2021/04/23 10:59:21;;;;;;;;;;;;;;;21.61;30.41;98094.66;5062819;28;690;-78
2021/04/23 11:01:47;;;;;;;;;;;;;;;21.67;30.58;98083.59;5063013;28;701;-80
2021/04/23 11:04:15;;;;;;;;;;;;;;;21.78;30.36;98084.91;5062538;28;922;-80
2021/04/23 11:06:51;;;;;;;;;;;;;;;21.73;30.09;98081.81;5062598;28;1926;-80
2021/04/23 11:09:20;;;;;;;;;;;;;;;21.53;30.53;98087.56;5062162;28;595;-77
2021/04/23 11:12:04;;;;;;;;;;;;;;;21.50;30.71;98082.78;5061907;28;669;-79
2021/04/23 11:14:30;;;;;;;;;;;;;;;21.41;30.50;98091.91;5062606;28;709;-76
2021/04/23 11:17:14;;;;;;;;;;;;;;;21.62;30.12;98096.25;5061781;28;738;-76
2021/04/23 11:19:40;;;;;;;;;;;;;;;22.02;30.31;98074.16;5062294;28;884;-76
2021/04/23 11:22:06;;;;;;;;;;;;;;;22.32;29.89;98084.25;5061330;28;935;-77
2021/04/23 11:24:31;;;;;;;;;;;;;;;22.48;29.32;98065.59;5062216;28;1902;-77
2021/04/23 11:27:04;;;;;;;;;;;;;;;22.02;29.78;98079.00;5062780;28;702;-76
2021/04/23 11:29:50;;;;;;;;;;;;;;;21.71;30.37;98085.09;5062349;28;760;-76
2021/04/23 11:32:22;;;;;;;;;;;;;;;21.71;30.53;98082.25;5057984;28;1080;-77
2021/04/23 11:34:47;;;;;;;;;;;;;;;21.65;30.27;98092.50;5061804;28;820;-77
2021/04/23 11:37:14;;;;;;;;;;;;;;;21.53;30.52;98090.41;5062236;28;635;-76
2021/04/23 11:39:46;;;;;;;;;;;;;;;21.61;30.41;98074.03;5062029;28;602;-76
2021/04/23 11:42:12;;;;;;;;;;;;;;;21.62;30.52;98082.09;5062120;28;591;-76
2021/04/23 11:44:41;;;;;;;;;;;;;;;21.58;30.47;98081.38;5061239;28;1909;-76
2021/04/23 11:47:07;;;;;;;;;;;;;;;21.50;30.34;98085.59;5061355;28;993;-77
2021/04/23 11:49:32;;;;;;;;;;;;;;;21.54;30.42;98089.16;5060991;28;888;-76
2021/04/23 11:52:01;;;;;;;;;;;;;;;21.59;30.24;98089.41;5062055;28;795;-76
2021/04/23 11:54:29;;;;;;;;;;;;;;;21.59;30.58;98080.13;5061905;28;705;-77
2021/04/23 11:56:55;;;;;;;;;;;;;;;21.45;30.79;98091.81;5062067;28;677;-78
2021/04/23 11:59:20;;;;;;;;;;;;;;;21.80;30.83;98102.25;5061278;28;986;-76
2021/04/23 12:01:46;;;;;;;;;;;;;;;22.15;30.14;98105.41;5061354;28;868;-78
2021/04/23 12:04:11;;;;;;;;;;;;;;;22.37;29.66;98091.44;5061621;28;959;-77
2021/04/23 12:06:37;;;;;;;;;;;;;;;22.62;29.41;98087.88;5060808;28;1913;-77
2021/04/23 12:09:14;;;;;;;;;;;;;;;22.27;29.69;98090.47;5061473;28;730;-77
2021/04/23 12:11:40;;;;;;;;;;;;;;;21.96;30.54;98092.13;5061538;28;909;-76
2021/04/23 12:14:06;;;;;;;;;;;;;;;21.93;30.23;98099.50;5060755;28;1005;-76
2021/04/23 12:16:31;;;;;;;;;;;;;;;21.74;30.85;98097.56;5060014;28;826;-76
2021/04/23 12:18:58;;;;;;;;;;;;;;;21.69;30.71;98089.59;5060430;28;922;-75
2021/04/23 12:21:24;;;;;;;;;;;;;;;21.72;30.46;98095.19;5060805;28;623;-76
2021/04/23 12:23:52;;;;;;;;;;;;;;;21.69;30.44;98100.94;5060997;28;622;-76
2021/04/23 12:26:17;;;;;;;;;;;;;;;21.59;30.90;98105.63;5060992;28;1914;-78
2021/04/23 12:28:45;;;;;;;;;;;;;;;21.61;30.61;98105.97;5059815;28;1020;-77
2021/04/23 12:31:10;;;;;;;;;;;;;;;21.64;30.60;98096.59;5059813;28;879;-77
2021/04/23 12:33:43;;;;;;;;;;;;;;;21.58;30.35;98095.53;5060594;28;973;-78
2021/04/23 12:36:11;;;;;;;;;;;;;;;21.55;30.78;98093.56;5060923;28;662;-77
2021/04/23 12:38:39;;;;;;;;;;;;;;;22.11;30.28;98099.03;5060734;28;638;-77
2021/04/23 12:41:14;;;;;;;;;;;;;;;22.39;29.59;98100.31;5060726;28;663;-80
2021/04/23 12:43:39;;;;;;;;;;;;;;;21.84;30.07;98104.97;5059874;28;812;-77
2021/04/23 12:46:05;;;;;;;;;;;;;;;21.74;30.34;98101.19;5060524;28;1973;-78
2021/04/23 12:48:30;;;;;;;;;;;;;;;21.55;30.37;98107.72;5060458;28;733;-76
2021/04/23 12:50:56;;;;;;;;;;;;;;;21.54;30.44;98106.16;5060145;28;827;-77
2021/04/23 12:53:22;;;;;;;;;;;;;;;21.51;30.39;98101.38;5060134;28;866;-80
2021/04/23 12:55:47;;;;;;;;;;;;;;;21.58;30.34;98107.66;5059551;28;867;-78
2021/04/23 12:58:13;;;;;;;;;;;;;;;21.47;30.15;98097.84;5059615;28;647;-77
2021/04/23 13:00:38;;;;;;;;;;;;;;;21.49;30.10;98109.50;5059839;28;1226;-78